sensor_id;sensor_type;location;lat;lon;timestamp;P1;durP1;ratioP1;P2;durP2;ratioP2
50757;SDS011;36732;47.980;11.652;2023-03-01T00:02:20;16.45;;;12.30;;
50757;SDS011;36732;47.980;11.652;2023-03-01T00:04:46;16.58;;;11.82;;
50757;SDS011;36732;47.980;11.652;2023-03-01T00:07:12;15.23;;;12.18;;
50757;SDS011;36732;47.980;11.652;2023-03-01T00:09:38;15.15;;;11.50;;
50757;SDS011;36732;47.980;11.652;2023-03-01T00:12:05;14.27;;;11.88;;
50757;SDS011;36732;47.980;11.652;2023-03-01T00:14:31;14.48;;;11.68;;
50757;SDS011;36732;47.980;11.652;2023-03-01T00:16:57;14.43;;;11.30;;
50757;SDS011;36732;47.980;11.652;2023-03-01T00:19:23;14.70;;;11.55;;
50757;SDS011;36732;47.980;11.652;2023-03-01T00:21:48;13.93;;;11.10;;
50757;SDS011;36732;47.980;11.652;2023-03-01T00:24:14;14.20;;;11.43;;
50757;SDS011;36732;47.980;11.652;2023-03-01T00:26:40;14.85;;;11.38;;
50757;SDS011;36732;47.980;11.652;2023-03-01T00:29:06;17.70;;;10.98;;
50757;SDS011;36732;47.980;11.652;2023-03-01T00:31:32;13.93;;;10.48;;
50757;SDS011;36732;47.980;11.652;2023-03-01T00:33:59;13.98;;;11.32;;
50757;SDS011;36732;47.980;11.652;2023-03-01T00:36:29;14.95;;;11.25;;
50757;SDS011;36732;47.980;11.652;2023-03-01T00:38:58;14.23;;;11.20;;
50757;SDS011;36732;47.980;11.652;2023-03-01T00:41:24;16.35;;;13.07;;
50757;SDS011;36732;47.980;11.652;2023-03-01T00:43:53;13.15;;;10.98;;
50757;SDS011;36732;47.980;11.652;2023-03-01T00:46:21;14.73;;;11.50;;
50757;SDS011;36732;47.980;11.652;2023-03-01T00:48:49;14.93;;;11.30;;
50757;SDS011;36732;47.980;11.652;2023-03-01T00:51:17;15.27;;;11.15;;
50757;SDS011;36732;47.980;11.652;2023-03-01T00:53:50;15.35;;;12.55;;
50757;SDS011;36732;47.980;11.652;2023-03-01T00:56:21;14.55;;;11.80;;
50757;SDS011;36732;47.980;11.652;2023-03-01T00:58:47;15.02;;;11.70;;
50757;SDS011;36732;47.980;11.652;2023-03-01T01:01:24;18.35;;;12.98;;
50757;SDS011;36732;47.980;11.652;2023-03-01T01:04:00;13.50;;;10.52;;
50757;SDS011;36732;47.980;11.652;2023-03-01T01:06:30;15.13;;;11.48;;
50757;SDS011;36732;47.980;11.652;2023-03-01T01:09:05;13.77;;;11.30;;
50757;SDS011;36732;47.980;11.652;2023-03-01T01:11:32;14.60;;;11.20;;
50757;SDS011;36732;47.980;11.652;2023-03-01T01:14:00;13.45;;;11.50;;
50757;SDS011;36732;47.980;11.652;2023-03-01T01:16:26;14.13;;;11.98;;
50757;SDS011;36732;47.980;11.652;2023-03-01T01:18:53;14.23;;;11.68;;
50757;SDS011;36732;47.980;11.652;2023-03-01T01:21:20;15.90;;;11.13;;
50757;SDS011;36732;47.980;11.652;2023-03-01T01:23:48;15.40;;;10.93;;
50757;SDS011;36732;47.980;11.652;2023-03-01T01:26:16;17.15;;;12.85;;
50757;SDS011;36732;47.980;11.652;2023-03-01T01:28:45;16.02;;;12.32;;
50757;SDS011;36732;47.980;11.652;2023-03-01T01:31:11;15.60;;;12.00;;
50757;SDS011;36732;47.980;11.652;2023-03-01T01:33:37;15.48;;;11.60;;
50757;SDS011;36732;47.980;11.652;2023-03-01T01:36:07;14.20;;;11.80;;
50757;SDS011;36732;47.980;11.652;2023-03-01T01:38:33;13.65;;;11.73;;
50757;SDS011;36732;47.980;11.652;2023-03-01T01:41:00;14.35;;;11.95;;
50757;SDS011;36732;47.980;11.652;2023-03-01T01:43:30;15.00;;;11.73;;
50757;SDS011;36732;47.980;11.652;2023-03-01T01:46:05;16.23;;;10.85;;
50757;SDS011;36732;47.980;11.652;2023-03-01T01:48:43;16.73;;;12.77;;
50757;SDS011;36732;47.980;11.652;2023-03-01T01:51:18;15.18;;;11.57;;
50757;SDS011;36732;47.980;11.652;2023-03-01T01:53:49;16.25;;;12.15;;
50757;SDS011;36732;47.980;11.652;2023-03-01T01:56:24;16.95;;;12.63;;
50757;SDS011;36732;47.980;11.652;2023-03-01T01:58:52;14.85;;;11.07;;
50757;SDS011;36732;47.980;11.652;2023-03-01T02:01:19;15.48;;;12.05;;
50757;SDS011;36732;47.980;11.652;2023-03-01T02:03:45;15.88;;;11.95;;
50757;SDS011;36732;47.980;11.652;2023-03-01T02:06:12;14.25;;;12.02;;
50757;SDS011;36732;47.980;11.652;2023-03-01T02:08:47;16.65;;;13.23;;
50757;SDS011;36732;47.980;11.652;2023-03-01T02:11:15;14.48;;;12.02;;
50757;SDS011;36732;47.980;11.652;2023-03-01T02:13:43;14.45;;;11.20;;
50757;SDS011;36732;47.980;11.652;2023-03-01T02:16:12;17.45;;;11.68;;
50757;SDS011;36732;47.980;11.652;2023-03-01T02:18:41;14.98;;;11.90;;
50757;SDS011;36732;47.980;11.652;2023-03-01T02:21:14;14.00;;;12.45;;
50757;SDS011;36732;47.980;11.652;2023-03-01T02:24:19;15.85;;;11.45;;
50757;SDS011;36732;47.980;11.652;2023-03-01T02:27:08;16.00;;;12.20;;
50757;SDS011;36732;47.980;11.652;2023-03-01T02:29:35;17.50;;;11.98;;
50757;SDS011;36732;47.980;11.652;2023-03-01T02:32:01;15.05;;;11.90;;
50757;SDS011;36732;47.980;11.652;2023-03-01T02:34:28;15.85;;;12.23;;
50757;SDS011;36732;47.980;11.652;2023-03-01T02:36:56;16.30;;;12.35;;
50757;SDS011;36732;47.980;11.652;2023-03-01T02:42:06;14.20;;;11.73;;
50757;SDS011;36732;47.980;11.652;2023-03-01T02:44:36;13.85;;;11.45;;
50757;SDS011;36732;47.980;11.652;2023-03-01T02:47:02;15.65;;;12.25;;
50757;SDS011;36732;47.980;11.652;2023-03-01T02:49:30;13.13;;;10.65;;
50757;SDS011;36732;47.980;11.652;2023-03-01T02:55:03;14.38;;;11.90;;
50757;SDS011;36732;47.980;11.652;2023-03-01T02:57:33;14.65;;;11.43;;
50757;SDS011;36732;47.980;11.652;2023-03-01T03:00:05;15.55;;;13.50;;
50757;SDS011;36732;47.980;11.652;2023-03-01T03:02:54;14.98;;;11.95;;
50757;SDS011;36732;47.980;11.652;2023-03-01T03:05:23;14.73;;;11.18;;
50757;SDS011;36732;47.980;11.652;2023-03-01T03:07:55;15.45;;;11.43;;
50757;SDS011;36732;47.980;11.652;2023-03-01T03:10:23;13.38;;;10.70;;
50757;SDS011;36732;47.980;11.652;2023-03-01T03:12:55;14.82;;;11.73;;
50757;SDS011;36732;47.980;11.652;2023-03-01T03:15:27;12.95;;;10.73;;
50757;SDS011;36732;47.980;11.652;2023-03-01T03:17:54;14.90;;;11.38;;
50757;SDS011;36732;47.980;11.652;2023-03-01T03:20:22;15.02;;;12.02;;
50757;SDS011;36732;47.980;11.652;2023-03-01T03:22:52;14.57;;;11.35;;
50757;SDS011;36732;47.980;11.652;2023-03-01T03:25:21;15.68;;;11.85;;
50757;SDS011;36732;47.980;11.652;2023-03-01T03:27:48;15.32;;;12.07;;
50757;SDS011;36732;47.980;11.652;2023-03-01T03:30:21;14.88;;;11.63;;
50757;SDS011;36732;47.980;11.652;2023-03-01T03:32:52;14.30;;;11.45;;
50757;SDS011;36732;47.980;11.652;2023-03-01T03:35:22;18.00;;;13.45;;
50757;SDS011;36732;47.980;11.652;2023-03-01T03:37:53;17.20;;;12.85;;
50757;SDS011;36732;47.980;11.652;2023-03-01T03:40:40;13.70;;;10.50;;
50757;SDS011;36732;47.980;11.652;2023-03-01T03:43:14;14.55;;;11.80;;
50757;SDS011;36732;47.980;11.652;2023-03-01T03:45:43;12.45;;;10.90;;
50757;SDS011;36732;47.980;11.652;2023-03-01T03:48:11;15.40;;;11.60;;
50757;SDS011;36732;47.980;11.652;2023-03-01T03:50:37;15.20;;;12.35;;
50757;SDS011;36732;47.980;11.652;2023-03-01T03:53:06;15.00;;;12.45;;
50757;SDS011;36732;47.980;11.652;2023-03-01T03:55:35;17.85;;;12.52;;
50757;SDS011;36732;47.980;11.652;2023-03-01T03:58:04;14.70;;;12.25;;
50757;SDS011;36732;47.980;11.652;2023-03-01T04:00:43;16.13;;;11.90;;
50757;SDS011;36732;47.980;11.652;2023-03-01T04:03:10;13.27;;;11.32;;
50757;SDS011;36732;47.980;11.652;2023-03-01T04:05:38;16.30;;;12.10;;
50757;SDS011;36732;47.980;11.652;2023-03-01T04:08:05;13.68;;;10.85;;
50757;SDS011;36732;47.980;11.652;2023-03-01T04:10:36;14.60;;;11.82;;
50757;SDS011;36732;47.980;11.652;2023-03-01T04:13:09;13.48;;;11.38;;
50757;SDS011;36732;47.980;11.652;2023-03-01T04:15:38;15.60;;;11.90;;
50757;SDS011;36732;47.980;11.652;2023-03-01T04:18:05;14.27;;;10.93;;
50757;SDS011;36732;47.980;11.652;2023-03-01T04:20:33;14.45;;;11.90;;
50757;SDS011;36732;47.980;11.652;2023-03-01T04:25:54;15.27;;;12.07;;
50757;SDS011;36732;47.980;11.652;2023-03-01T04:28:25;14.75;;;11.68;;
50757;SDS011;36732;47.980;11.652;2023-03-01T04:31:08;14.35;;;10.23;;
50757;SDS011;36732;47.980;11.652;2023-03-01T04:33:45;14.80;;;11.55;;
50757;SDS011;36732;47.980;11.652;2023-03-01T04:36:13;14.38;;;12.10;;
50757;SDS011;36732;47.980;11.652;2023-03-01T04:38:41;13.85;;;11.82;;
50757;SDS011;36732;47.980;11.652;2023-03-01T04:41:09;13.82;;;12.20;;
50757;SDS011;36732;47.980;11.652;2023-03-01T04:43:37;16.20;;;12.70;;
50757;SDS011;36732;47.980;11.652;2023-03-01T04:46:03;17.67;;;13.40;;
50757;SDS011;36732;47.980;11.652;2023-03-01T04:48:33;15.95;;;12.02;;
50757;SDS011;36732;47.980;11.652;2023-03-01T04:51:01;14.85;;;11.35;;
50757;SDS011;36732;47.980;11.652;2023-03-01T04:53:27;16.77;;;12.43;;
50757;SDS011;36732;47.980;11.652;2023-03-01T04:55:56;15.18;;;12.10;;
50757;SDS011;36732;47.980;11.652;2023-03-01T04:58:23;16.35;;;12.68;;
50757;SDS011;36732;47.980;11.652;2023-03-01T05:00:51;16.52;;;12.80;;
50757;SDS011;36732;47.980;11.652;2023-03-01T05:03:17;15.90;;;12.65;;
50757;SDS011;36732;47.980;11.652;2023-03-01T05:05:44;17.27;;;12.93;;
50757;SDS011;36732;47.980;11.652;2023-03-01T05:08:14;16.77;;;12.80;;
50757;SDS011;36732;47.980;11.652;2023-03-01T05:10:47;18.98;;;13.57;;
50757;SDS011;36732;47.980;11.652;2023-03-01T05:13:16;15.88;;;12.05;;
50757;SDS011;36732;47.980;11.652;2023-03-01T05:16:00;15.43;;;12.30;;
50757;SDS011;36732;47.980;11.652;2023-03-01T05:18:28;15.95;;;12.75;;
50757;SDS011;36732;47.980;11.652;2023-03-01T05:21:02;16.83;;;13.43;;
50757;SDS011;36732;47.980;11.652;2023-03-01T05:25:58;14.85;;;11.23;;
50757;SDS011;36732;47.980;11.652;2023-03-01T05:28:26;16.23;;;13.02;;
50757;SDS011;36732;47.980;11.652;2023-03-01T05:30:53;15.05;;;11.93;;
50757;SDS011;36732;47.980;11.652;2023-03-01T05:33:20;15.18;;;12.25;;
50757;SDS011;36732;47.980;11.652;2023-03-01T05:35:47;14.82;;;12.00;;
50757;SDS011;36732;47.980;11.652;2023-03-01T05:38:14;15.07;;;12.57;;
50757;SDS011;36732;47.980;11.652;2023-03-01T05:40:44;13.65;;;11.27;;
50757;SDS011;36732;47.980;11.652;2023-03-01T05:43:13;12.50;;;10.55;;
50757;SDS011;36732;47.980;11.652;2023-03-01T05:45:41;15.07;;;12.57;;
50757;SDS011;36732;47.980;11.652;2023-03-01T05:48:07;14.35;;;12.18;;
50757;SDS011;36732;47.980;11.652;2023-03-01T05:50:35;15.73;;;12.88;;
50757;SDS011;36732;47.980;11.652;2023-03-01T05:53:15;17.58;;;13.80;;
50757;SDS011;36732;47.980;11.652;2023-03-01T05:55:46;17.17;;;12.82;;
50757;SDS011;36732;47.980;11.652;2023-03-01T05:58:17;16.05;;;12.48;;
50757;SDS011;36732;47.980;11.652;2023-03-01T06:00:45;14.60;;;12.13;;
50757;SDS011;36732;47.980;11.652;2023-03-01T06:03:13;15.35;;;12.35;;
50757;SDS011;36732;47.980;11.652;2023-03-01T06:05:41;16.75;;;12.70;;
50757;SDS011;36732;47.980;11.652;2023-03-01T06:08:08;16.23;;;12.25;;
50757;SDS011;36732;47.980;11.652;2023-03-01T06:10:35;17.00;;;13.65;;
50757;SDS011;36732;47.980;11.652;2023-03-01T06:13:01;17.52;;;12.70;;
50757;SDS011;36732;47.980;11.652;2023-03-01T06:15:27;16.65;;;13.00;;
50757;SDS011;36732;47.980;11.652;2023-03-01T06:17:53;15.15;;;12.45;;
50757;SDS011;36732;47.980;11.652;2023-03-01T06:20:24;15.20;;;11.15;;
50757;SDS011;36732;47.980;11.652;2023-03-01T06:22:52;15.48;;;12.70;;
50757;SDS011;36732;47.980;11.652;2023-03-01T06:25:19;14.65;;;11.48;;
50757;SDS011;36732;47.980;11.652;2023-03-01T06:27:47;15.52;;;12.35;;
50757;SDS011;36732;47.980;11.652;2023-03-01T06:30:18;17.30;;;12.60;;
50757;SDS011;36732;47.980;11.652;2023-03-01T06:32:45;16.33;;;12.80;;
50757;SDS011;36732;47.980;11.652;2023-03-01T06:35:13;15.10;;;12.55;;
50757;SDS011;36732;47.980;11.652;2023-03-01T06:37:42;16.83;;;13.52;;
50757;SDS011;36732;47.980;11.652;2023-03-01T06:40:08;16.90;;;13.35;;
50757;SDS011;36732;47.980;11.652;2023-03-01T06:42:36;16.85;;;13.30;;
50757;SDS011;36732;47.980;11.652;2023-03-01T06:45:04;15.98;;;13.25;;
50757;SDS011;36732;47.980;11.652;2023-03-01T06:47:32;15.80;;;13.30;;
50757;SDS011;36732;47.980;11.652;2023-03-01T06:49:58;20.45;;;14.25;;
50757;SDS011;36732;47.980;11.652;2023-03-01T06:52:25;18.13;;;12.98;;
50757;SDS011;36732;47.980;11.652;2023-03-01T06:54:50;15.05;;;12.20;;
50757;SDS011;36732;47.980;11.652;2023-03-01T06:57:16;16.27;;;13.52;;
50757;SDS011;36732;47.980;11.652;2023-03-01T06:59:42;15.55;;;12.45;;
50757;SDS011;36732;47.980;11.652;2023-03-01T07:02:09;16.67;;;12.98;;
50757;SDS011;36732;47.980;11.652;2023-03-01T07:04:36;14.75;;;11.73;;
50757;SDS011;36732;47.980;11.652;2023-03-01T07:07:03;17.33;;;13.65;;
50757;SDS011;36732;47.980;11.652;2023-03-01T07:09:28;15.95;;;12.73;;
50757;SDS011;36732;47.980;11.652;2023-03-01T07:11:54;17.55;;;13.80;;
50757;SDS011;36732;47.980;11.652;2023-03-01T07:14:21;13.60;;;11.57;;
50757;SDS011;36732;47.980;11.652;2023-03-01T07:16:49;17.58;;;13.38;;
50757;SDS011;36732;47.980;11.652;2023-03-01T07:19:15;18.52;;;13.77;;
50757;SDS011;36732;47.980;11.652;2023-03-01T07:21:41;17.50;;;13.07;;
50757;SDS011;36732;47.980;11.652;2023-03-01T07:24:07;19.13;;;13.60;;
50757;SDS011;36732;47.980;11.652;2023-03-01T07:26:33;18.65;;;13.07;;
50757;SDS011;36732;47.980;11.652;2023-03-01T07:29:03;18.02;;;12.52;;
50757;SDS011;36732;47.980;11.652;2023-03-01T07:31:30;20.60;;;14.05;;
50757;SDS011;36732;47.980;11.652;2023-03-01T07:33:56;19.27;;;13.27;;
50757;SDS011;36732;47.980;11.652;2023-03-01T07:36:23;16.20;;;13.52;;
50757;SDS011;36732;47.980;11.652;2023-03-01T07:38:49;17.35;;;12.40;;
50757;SDS011;36732;47.980;11.652;2023-03-01T07:41:15;18.48;;;12.88;;
50757;SDS011;36732;47.980;11.652;2023-03-01T07:43:42;16.65;;;12.73;;
50757;SDS011;36732;47.980;11.652;2023-03-01T07:46:07;20.33;;;14.63;;
50757;SDS011;36732;47.980;11.652;2023-03-01T07:48:33;16.95;;;13.05;;
50757;SDS011;36732;47.980;11.652;2023-03-01T07:51:00;16.58;;;12.77;;
50757;SDS011;36732;47.980;11.652;2023-03-01T07:53:28;18.65;;;13.82;;
50757;SDS011;36732;47.980;11.652;2023-03-01T07:56:06;16.48;;;13.10;;
50757;SDS011;36732;47.980;11.652;2023-03-01T07:58:35;17.38;;;13.20;;
50757;SDS011;36732;47.980;11.652;2023-03-01T08:01:05;17.70;;;13.45;;
50757;SDS011;36732;47.980;11.652;2023-03-01T08:03:33;17.63;;;13.43;;
50757;SDS011;36732;47.980;11.652;2023-03-01T08:06:00;17.42;;;13.10;;
50757;SDS011;36732;47.980;11.652;2023-03-01T08:08:27;16.40;;;12.93;;
50757;SDS011;36732;47.980;11.652;2023-03-01T08:10:56;17.05;;;14.18;;
50757;SDS011;36732;47.980;11.652;2023-03-01T08:13:22;18.38;;;13.40;;
50757;SDS011;36732;47.980;11.652;2023-03-01T08:15:48;18.77;;;14.32;;
50757;SDS011;36732;47.980;11.652;2023-03-01T08:18:14;18.10;;;13.45;;
50757;SDS011;36732;47.980;11.652;2023-03-01T08:20:42;16.98;;;12.98;;
50757;SDS011;36732;47.980;11.652;2023-03-01T08:23:07;19.15;;;14.27;;
50757;SDS011;36732;47.980;11.652;2023-03-01T08:25:33;18.30;;;13.73;;
50757;SDS011;36732;47.980;11.652;2023-03-01T08:27:59;17.30;;;13.45;;
50757;SDS011;36732;47.980;11.652;2023-03-01T08:30:24;16.23;;;13.80;;
50757;SDS011;36732;47.980;11.652;2023-03-01T08:32:50;17.38;;;13.38;;
50757;SDS011;36732;47.980;11.652;2023-03-01T08:35:16;18.13;;;13.68;;
50757;SDS011;36732;47.980;11.652;2023-03-01T08:37:42;18.00;;;13.43;;
50757;SDS011;36732;47.980;11.652;2023-03-01T08:40:08;16.38;;;12.98;;
50757;SDS011;36732;47.980;11.652;2023-03-01T08:42:35;18.63;;;13.93;;
50757;SDS011;36732;47.980;11.652;2023-03-01T08:45:02;16.90;;;13.35;;
50757;SDS011;36732;47.980;11.652;2023-03-01T08:47:29;17.55;;;13.80;;
50757;SDS011;36732;47.980;11.652;2023-03-01T08:49:54;17.52;;;13.48;;
50757;SDS011;36732;47.980;11.652;2023-03-01T08:52:20;17.52;;;13.63;;
50757;SDS011;36732;47.980;11.652;2023-03-01T08:54:47;19.63;;;13.60;;
50757;SDS011;36732;47.980;11.652;2023-03-01T08:57:13;18.20;;;13.68;;
50757;SDS011;36732;47.980;11.652;2023-03-01T08:59:39;17.77;;;13.48;;
50757;SDS011;36732;47.980;11.652;2023-03-01T09:02:06;19.10;;;14.95;;
50757;SDS011;36732;47.980;11.652;2023-03-01T09:04:39;18.27;;;14.48;;
50757;SDS011;36732;47.980;11.652;2023-03-01T09:07:05;18.23;;;14.18;;
50757;SDS011;36732;47.980;11.652;2023-03-01T09:09:33;17.25;;;13.50;;
50757;SDS011;36732;47.980;11.652;2023-03-01T09:11:59;15.90;;;12.65;;
50757;SDS011;36732;47.980;11.652;2023-03-01T09:14:25;17.48;;;13.85;;
50757;SDS011;36732;47.980;11.652;2023-03-01T09:16:51;21.40;;;14.65;;
50757;SDS011;36732;47.980;11.652;2023-03-01T09:19:16;18.33;;;13.52;;
50757;SDS011;36732;47.980;11.652;2023-03-01T09:21:42;20.13;;;15.35;;
50757;SDS011;36732;47.980;11.652;2023-03-01T09:24:17;18.17;;;12.52;;
50757;SDS011;36732;47.980;11.652;2023-03-01T09:26:46;19.48;;;15.07;;
50757;SDS011;36732;47.980;11.652;2023-03-01T09:29:12;19.42;;;15.55;;
50757;SDS011;36732;47.980;11.652;2023-03-01T09:31:39;18.30;;;14.90;;
50757;SDS011;36732;47.980;11.652;2023-03-01T09:34:05;19.38;;;14.68;;
50757;SDS011;36732;47.980;11.652;2023-03-01T09:36:32;20.35;;;14.13;;
50757;SDS011;36732;47.980;11.652;2023-03-01T09:38:58;19.02;;;14.88;;
50757;SDS011;36732;47.980;11.652;2023-03-01T09:47:14;17.50;;;13.77;;
50757;SDS011;36732;47.980;11.652;2023-03-01T09:49:57;19.00;;;15.30;;
50757;SDS011;36732;47.980;11.652;2023-03-01T09:55:48;19.98;;;14.70;;
50757;SDS011;36732;47.980;11.652;2023-03-01T10:09:36;19.02;;;14.45;;
50757;SDS011;36732;47.980;11.652;2023-03-01T10:12:06;17.73;;;15.07;;
50757;SDS011;36732;47.980;11.652;2023-03-01T10:20:46;18.98;;;14.55;;
50757;SDS011;36732;47.980;11.652;2023-03-01T10:23:22;18.02;;;14.60;;
50757;SDS011;36732;47.980;11.652;2023-03-01T10:28:34;21.98;;;14.90;;
50757;SDS011;36732;47.980;11.652;2023-03-01T10:31:18;21.48;;;16.33;;
50757;SDS011;36732;47.980;11.652;2023-03-01T10:33:53;19.88;;;14.80;;
50757;SDS011;36732;47.980;11.652;2023-03-01T10:36:21;20.55;;;15.57;;
50757;SDS011;36732;47.980;11.652;2023-03-01T10:38:55;21.90;;;16.65;;
50757;SDS011;36732;47.980;11.652;2023-03-01T10:41:23;20.98;;;15.25;;
50757;SDS011;36732;47.980;11.652;2023-03-01T10:43:51;20.48;;;15.50;;
50757;SDS011;36732;47.980;11.652;2023-03-01T10:46:22;20.67;;;15.35;;
50757;SDS011;36732;47.980;11.652;2023-03-01T10:49:14;21.85;;;16.95;;
50757;SDS011;36732;47.980;11.652;2023-03-01T10:51:46;22.10;;;15.95;;
50757;SDS011;36732;47.980;11.652;2023-03-01T10:54:25;19.15;;;14.88;;
50757;SDS011;36732;47.980;11.652;2023-03-01T10:56:57;21.65;;;15.70;;
50757;SDS011;36732;47.980;11.652;2023-03-01T10:59:35;21.67;;;16.80;;
50757;SDS011;36732;47.980;11.652;2023-03-01T11:04:55;21.83;;;15.82;;
50757;SDS011;36732;47.980;11.652;2023-03-01T11:07:21;23.55;;;18.13;;
50757;SDS011;36732;47.980;11.652;2023-03-01T11:09:47;25.48;;;17.90;;
50757;SDS011;36732;47.980;11.652;2023-03-01T11:12:16;24.17;;;16.50;;
50757;SDS011;36732;47.980;11.652;2023-03-01T11:14:48;20.05;;;15.48;;
50757;SDS011;36732;47.980;11.652;2023-03-01T11:17:23;22.27;;;16.30;;
50757;SDS011;36732;47.980;11.652;2023-03-01T11:20:29;23.45;;;16.75;;
50757;SDS011;36732;47.980;11.652;2023-03-01T11:22:55;20.67;;;16.05;;
50757;SDS011;36732;47.980;11.652;2023-03-01T11:25:28;23.83;;;16.30;;
50757;SDS011;36732;47.980;11.652;2023-03-01T11:30:28;20.33;;;15.30;;
50757;SDS011;36732;47.980;11.652;2023-03-01T11:33:03;22.75;;;16.70;;
50757;SDS011;36732;47.980;11.652;2023-03-01T11:35:33;20.70;;;15.27;;
50757;SDS011;36732;47.980;11.652;2023-03-01T11:40:44;21.90;;;16.58;;
50757;SDS011;36732;47.980;11.652;2023-03-01T12:03:30;16.80;;;13.32;;
50757;SDS011;36732;47.980;11.652;2023-03-01T12:06:16;16.33;;;13.10;;
50757;SDS011;36732;47.980;11.652;2023-03-01T12:09:48;18.23;;;12.68;;
50757;SDS011;36732;47.980;11.652;2023-03-01T12:17:31;18.52;;;13.55;;
50757;SDS011;36732;47.980;11.652;2023-03-01T12:26:32;19.60;;;15.25;;
50757;SDS011;36732;47.980;11.652;2023-03-01T12:29:12;21.30;;;15.80;;
50757;SDS011;36732;47.980;11.652;2023-03-01T12:34:18;22.45;;;16.98;;
50757;SDS011;36732;47.980;11.652;2023-03-01T12:46:22;18.30;;;14.10;;
50757;SDS011;36732;47.980;11.652;2023-03-01T12:49:16;18.48;;;14.32;;
50757;SDS011;36732;47.980;11.652;2023-03-01T12:54:41;21.67;;;15.32;;
50757;SDS011;36732;47.980;11.652;2023-03-01T13:00:02;21.48;;;15.63;;
50757;SDS011;36732;47.980;11.652;2023-03-01T13:11:28;19.77;;;14.80;;
50757;SDS011;36732;47.980;11.652;2023-03-01T13:16:53;19.48;;;15.23;;
50757;SDS011;36732;47.980;11.652;2023-03-01T13:19:21;20.02;;;15.43;;
50757;SDS011;36732;47.980;11.652;2023-03-01T13:21:50;18.67;;;14.05;;
50757;SDS011;36732;47.980;11.652;2023-03-01T13:29:43;20.20;;;16.23;;
50757;SDS011;36732;47.980;11.652;2023-03-01T13:37:44;18.88;;;15.38;;
50757;SDS011;36732;47.980;11.652;2023-03-01T13:42:46;19.65;;;15.32;;
50757;SDS011;36732;47.980;11.652;2023-03-01T13:45:58;20.25;;;15.65;;
50757;SDS011;36732;47.980;11.652;2023-03-01T13:48:16;25.52;;;18.42;;
50757;SDS011;36732;47.980;11.652;2023-03-01T13:50:51;30.75;;;21.42;;
50757;SDS011;36732;47.980;11.652;2023-03-01T13:53:31;36.03;;;25.10;;
50757;SDS011;36732;47.980;11.652;2023-03-01T13:56:03;26.58;;;19.10;;
50757;SDS011;36732;47.980;11.652;2023-03-01T13:58:48;25.33;;;18.88;;
50757;SDS011;36732;47.980;11.652;2023-03-01T14:01:25;23.98;;;17.92;;
50757;SDS011;36732;47.980;11.652;2023-03-01T14:04:00;26.80;;;20.23;;
50757;SDS011;36732;47.980;11.652;2023-03-01T14:06:44;23.80;;;19.00;;
50757;SDS011;36732;47.980;11.652;2023-03-01T14:09:22;23.05;;;18.33;;
50757;SDS011;36732;47.980;11.652;2023-03-01T14:22:54;28.75;;;19.48;;
50757;SDS011;36732;47.980;11.652;2023-03-01T14:25:31;24.98;;;18.58;;
50757;SDS011;36732;47.980;11.652;2023-03-01T14:30:43;138.77;;;69.93;;
50757;SDS011;36732;47.980;11.652;2023-03-01T14:33:18;41.47;;;28.27;;
50757;SDS011;36732;47.980;11.652;2023-03-01T14:38:29;30.15;;;20.45;;
50757;SDS011;36732;47.980;11.652;2023-03-01T14:43:47;25.40;;;20.50;;
50757;SDS011;36732;47.980;11.652;2023-03-01T14:46:26;21.58;;;18.13;;
50757;SDS011;36732;47.980;11.652;2023-03-01T14:49:23;25.95;;;20.63;;
50757;SDS011;36732;47.980;11.652;2023-03-01T14:52:00;26.80;;;19.88;;
50757;SDS011;36732;47.980;11.652;2023-03-01T14:54:49;25.83;;;18.73;;
50757;SDS011;36732;47.980;11.652;2023-03-01T14:57:21;24.98;;;19.73;;
50757;SDS011;36732;47.980;11.652;2023-03-01T14:59:50;25.13;;;19.85;;
50757;SDS011;36732;47.980;11.652;2023-03-01T15:02:24;25.15;;;19.75;;
50757;SDS011;36732;47.980;11.652;2023-03-01T15:04:52;24.83;;;19.90;;
50757;SDS011;36732;47.980;11.652;2023-03-01T15:07:21;23.55;;;19.10;;
50757;SDS011;36732;47.980;11.652;2023-03-01T15:09:51;23.30;;;18.02;;
50757;SDS011;36732;47.980;11.652;2023-03-01T15:14:53;24.25;;;17.52;;
50757;SDS011;36732;47.980;11.652;2023-03-01T15:17:26;26.33;;;20.30;;
50757;SDS011;36732;47.980;11.652;2023-03-01T15:19:57;24.92;;;19.13;;
50757;SDS011;36732;47.980;11.652;2023-03-01T15:22:24;23.67;;;17.20;;
50757;SDS011;36732;47.980;11.652;2023-03-01T15:24:52;25.85;;;18.05;;
50757;SDS011;36732;47.980;11.652;2023-03-01T15:27:22;23.55;;;17.90;;
50757;SDS011;36732;47.980;11.652;2023-03-01T15:29:50;22.98;;;17.02;;
50757;SDS011;36732;47.980;11.652;2023-03-01T15:32:28;22.63;;;17.63;;
50757;SDS011;36732;47.980;11.652;2023-03-01T15:34:57;23.08;;;17.67;;
50757;SDS011;36732;47.980;11.652;2023-03-01T15:37:44;36.30;;;26.60;;
50757;SDS011;36732;47.980;11.652;2023-03-01T15:40:22;36.88;;;26.15;;
50757;SDS011;36732;47.980;11.652;2023-03-01T15:42:56;35.63;;;25.23;;
50757;SDS011;36732;47.980;11.652;2023-03-01T15:45:24;27.83;;;20.52;;
50757;SDS011;36732;47.980;11.652;2023-03-01T15:47:56;28.88;;;22.27;;
50757;SDS011;36732;47.980;11.652;2023-03-01T15:50:27;28.65;;;21.52;;
50757;SDS011;36732;47.980;11.652;2023-03-01T15:52:58;23.05;;;18.67;;
50757;SDS011;36732;47.980;11.652;2023-03-01T15:55:28;26.98;;;20.60;;
50757;SDS011;36732;47.980;11.652;2023-03-01T15:58:31;27.52;;;21.70;;
50757;SDS011;36732;47.980;11.652;2023-03-01T16:00:50;30.42;;;24.73;;
50757;SDS011;36732;47.980;11.652;2023-03-01T16:03:21;30.75;;;23.52;;
50757;SDS011;36732;47.980;11.652;2023-03-01T16:05:49;31.55;;;24.70;;
50757;SDS011;36732;47.980;11.652;2023-03-01T16:08:15;39.75;;;29.13;;
50757;SDS011;36732;47.980;11.652;2023-03-01T16:10:42;46.00;;;32.90;;
50757;SDS011;36732;47.980;11.652;2023-03-01T16:13:11;41.88;;;29.15;;
50757;SDS011;36732;47.980;11.652;2023-03-01T16:15:38;32.38;;;24.23;;
50757;SDS011;36732;47.980;11.652;2023-03-01T16:18:05;24.63;;;19.73;;
50757;SDS011;36732;47.980;11.652;2023-03-01T16:20:32;23.00;;;18.40;;
50757;SDS011;36732;47.980;11.652;2023-03-01T16:22:59;25.40;;;19.10;;
50757;SDS011;36732;47.980;11.652;2023-03-01T16:25:28;21.80;;;17.50;;
50757;SDS011;36732;47.980;11.652;2023-03-01T16:27:54;26.17;;;17.40;;
50757;SDS011;36732;47.980;11.652;2023-03-01T16:30:21;22.92;;;17.25;;
50757;SDS011;36732;47.980;11.652;2023-03-01T16:32:48;22.13;;;16.90;;
50757;SDS011;36732;47.980;11.652;2023-03-01T16:35:17;21.73;;;16.88;;
50757;SDS011;36732;47.980;11.652;2023-03-01T16:37:45;21.65;;;16.58;;
50757;SDS011;36732;47.980;11.652;2023-03-01T16:40:21;22.55;;;17.15;;
50757;SDS011;36732;47.980;11.652;2023-03-01T16:42:50;19.48;;;14.80;;
50757;SDS011;36732;47.980;11.652;2023-03-01T16:45:17;22.08;;;16.50;;
50757;SDS011;36732;47.980;11.652;2023-03-01T16:47:43;23.17;;;16.45;;
50757;SDS011;36732;47.980;11.652;2023-03-01T16:50:09;24.00;;;16.02;;
50757;SDS011;36732;47.980;11.652;2023-03-01T16:52:35;22.55;;;16.63;;